sensor_id;sensor_type;location;lat;lon;timestamp;P1;durP1;ratioP1;P2;durP2;ratioP2
16737;SDS011;17906;47.684;10.806;2023-03-20T00:00:13;4.43;;;2.53;;
16737;SDS011;17906;47.684;10.806;2023-03-20T00:02:44;3.67;;;2.40;;
16737;SDS011;17906;47.684;10.806;2023-03-20T00:05:14;6.33;;;2.27;;
16737;SDS011;17906;47.684;10.806;2023-03-20T00:07:44;3.87;;;2.40;;
16737;SDS011;17906;47.684;10.806;2023-03-20T00:10:11;3.37;;;2.17;;
16737;SDS011;17906;47.684;10.806;2023-03-20T00:12:38;3.83;;;2.30;;
16737;SDS011;17906;47.684;10.806;2023-03-20T00:15:06;4.77;;;2.43;;
16737;SDS011;17906;47.684;10.806;2023-03-20T00:17:48;3.23;;;2.30;;
16737;SDS011;17906;47.684;10.806;2023-03-20T00:20:15;4.23;;;2.30;;
16737;SDS011;17906;47.684;10.806;2023-03-20T00:22:41;3.03;;;2.23;;
16737;SDS011;17906;47.684;10.806;2023-03-20T00:25:08;5.23;;;3.00;;
16737;SDS011;17906;47.684;10.806;2023-03-20T00:27:39;3.97;;;2.60;;
16737;SDS011;17906;47.684;10.806;2023-03-20T00:30:08;4.00;;;2.37;;
16737;SDS011;17906;47.684;10.806;2023-03-20T00:32:43;3.47;;;2.60;;
16737;SDS011;17906;47.684;10.806;2023-03-20T00:35:17;3.90;;;2.20;;
16737;SDS011;17906;47.684;10.806;2023-03-20T00:37:45;2.93;;;2.33;;
16737;SDS011;17906;47.684;10.806;2023-03-20T00:40:12;3.57;;;2.27;;
16737;SDS011;17906;47.684;10.806;2023-03-20T00:42:39;4.47;;;2.30;;
16737;SDS011;17906;47.684;10.806;2023-03-20T00:45:07;3.43;;;2.10;;
16737;SDS011;17906;47.684;10.806;2023-03-20T00:47:37;3.53;;;2.20;;
16737;SDS011;17906;47.684;10.806;2023-03-20T00:50:06;3.40;;;2.40;;
16737;SDS011;17906;47.684;10.806;2023-03-20T00:52:40;2.80;;;2.00;;
16737;SDS011;17906;47.684;10.806;2023-03-20T00:55:08;3.37;;;2.20;;
16737;SDS011;17906;47.684;10.806;2023-03-20T00:57:36;3.07;;;2.00;;
16737;SDS011;17906;47.684;10.806;2023-03-20T01:00:06;3.63;;;2.37;;
16737;SDS011;17906;47.684;10.806;2023-03-20T01:02:38;4.33;;;2.40;;
16737;SDS011;17906;47.684;10.806;2023-03-20T01:05:05;4.10;;;2.23;;
16737;SDS011;17906;47.684;10.806;2023-03-20T01:07:32;4.77;;;2.50;;
16737;SDS011;17906;47.684;10.806;2023-03-20T01:10:00;5.27;;;2.60;;
16737;SDS011;17906;47.684;10.806;2023-03-20T01:12:27;5.30;;;2.73;;
16737;SDS011;17906;47.684;10.806;2023-03-20T01:14:54;4.10;;;2.70;;
16737;SDS011;17906;47.684;10.806;2023-03-20T01:17:22;4.67;;;2.60;;
16737;SDS011;17906;47.684;10.806;2023-03-20T01:19:50;3.00;;;2.10;;
16737;SDS011;17906;47.684;10.806;2023-03-20T01:22:17;3.60;;;2.07;;
16737;SDS011;17906;47.684;10.806;2023-03-20T01:24:44;2.63;;;2.00;;
16737;SDS011;17906;47.684;10.806;2023-03-20T01:27:13;3.40;;;1.90;;
16737;SDS011;17906;47.684;10.806;2023-03-20T01:29:41;2.60;;;1.90;;
16737;SDS011;17906;47.684;10.806;2023-03-20T01:32:08;3.43;;;1.70;;
16737;SDS011;17906;47.684;10.806;2023-03-20T01:34:38;1.90;;;1.50;;
16737;SDS011;17906;47.684;10.806;2023-03-20T01:37:05;2.90;;;1.90;;
16737;SDS011;17906;47.684;10.806;2023-03-20T01:39:36;4.63;;;1.90;;
16737;SDS011;17906;47.684;10.806;2023-03-20T01:42:03;1.73;;;1.33;;
16737;SDS011;17906;47.684;10.806;2023-03-20T01:44:34;2.37;;;1.40;;
16737;SDS011;17906;47.684;10.806;2023-03-20T01:47:02;5.37;;;1.50;;
16737;SDS011;17906;47.684;10.806;2023-03-20T01:52:40;2.37;;;1.70;;
16737;SDS011;17906;47.684;10.806;2023-03-20T01:55:07;2.23;;;1.53;;
16737;SDS011;17906;47.684;10.806;2023-03-20T01:57:34;2.00;;;1.40;;
16737;SDS011;17906;47.684;10.806;2023-03-20T02:00:04;2.93;;;1.70;;
16737;SDS011;17906;47.684;10.806;2023-03-20T02:02:34;2.90;;;1.43;;
16737;SDS011;17906;47.684;10.806;2023-03-20T02:05:05;3.43;;;1.50;;
16737;SDS011;17906;47.684;10.806;2023-03-20T02:07:36;2.63;;;1.57;;
16737;SDS011;17906;47.684;10.806;2023-03-20T02:10:05;2.40;;;1.60;;
16737;SDS011;17906;47.684;10.806;2023-03-20T02:12:35;2.53;;;1.67;;
16737;SDS011;17906;47.684;10.806;2023-03-20T02:15:06;2.30;;;1.40;;
16737;SDS011;17906;47.684;10.806;2023-03-20T02:17:33;1.70;;;1.40;;
16737;SDS011;17906;47.684;10.806;2023-03-20T02:20:03;1.67;;;1.30;;
16737;SDS011;17906;47.684;10.806;2023-03-20T02:22:43;2.13;;;1.50;;
16737;SDS011;17906;47.684;10.806;2023-03-20T02:28:42;2.80;;;1.43;;
16737;SDS011;17906;47.684;10.806;2023-03-20T02:31:33;2.37;;;1.37;;
16737;SDS011;17906;47.684;10.806;2023-03-20T02:34:23;3.77;;;1.60;;
16737;SDS011;17906;47.684;10.806;2023-03-20T02:37:24;3.33;;;1.40;;
16737;SDS011;17906;47.684;10.806;2023-03-20T02:40:05;2.23;;;1.50;;
16737;SDS011;17906;47.684;10.806;2023-03-20T02:42:42;3.30;;;1.60;;
16737;SDS011;17906;47.684;10.806;2023-03-20T02:45:12;1.70;;;1.13;;
16737;SDS011;17906;47.684;10.806;2023-03-20T02:47:45;2.17;;;1.20;;
16737;SDS011;17906;47.684;10.806;2023-03-20T02:50:18;3.17;;;1.30;;
16737;SDS011;17906;47.684;10.806;2023-03-20T02:53:01;1.47;;;1.20;;
16737;SDS011;17906;47.684;10.806;2023-03-20T02:55:44;2.23;;;1.20;;
16737;SDS011;17906;47.684;10.806;2023-03-20T02:58:13;2.60;;;1.20;;
16737;SDS011;17906;47.684;10.806;2023-03-20T03:00:46;1.93;;;1.37;;
16737;SDS011;17906;47.684;10.806;2023-03-20T03:03:17;1.77;;;1.20;;
16737;SDS011;17906;47.684;10.806;2023-03-20T03:05:49;1.60;;;1.10;;
16737;SDS011;17906;47.684;10.806;2023-03-20T03:08:21;2.00;;;1.00;;
16737;SDS011;17906;47.684;10.806;2023-03-20T03:10:51;1.67;;;1.00;;
16737;SDS011;17906;47.684;10.806;2023-03-20T03:13:22;2.50;;;1.10;;
16737;SDS011;17906;47.684;10.806;2023-03-20T03:15:53;3.53;;;1.27;;
16737;SDS011;17906;47.684;10.806;2023-03-20T03:18:27;2.93;;;0.93;;
16737;SDS011;17906;47.684;10.806;2023-03-20T03:20:56;1.43;;;1.00;;
16737;SDS011;17906;47.684;10.806;2023-03-20T03:23:27;1.10;;;0.93;;
16737;SDS011;17906;47.684;10.806;2023-03-20T03:25:56;1.30;;;1.00;;
16737;SDS011;17906;47.684;10.806;2023-03-20T03:28:26;1.63;;;0.83;;
16737;SDS011;17906;47.684;10.806;2023-03-20T03:31:01;1.90;;;1.10;;
16737;SDS011;17906;47.684;10.806;2023-03-20T03:33:30;1.60;;;1.30;;
16737;SDS011;17906;47.684;10.806;2023-03-20T03:36:01;2.27;;;1.20;;
16737;SDS011;17906;47.684;10.806;2023-03-20T03:38:37;3.37;;;0.93;;
16737;SDS011;17906;47.684;10.806;2023-03-20T03:41:12;1.33;;;0.97;;
16737;SDS011;17906;47.684;10.806;2023-03-20T03:43:46;0.80;;;0.80;;
16737;SDS011;17906;47.684;10.806;2023-03-20T03:46:21;1.30;;;1.00;;
16737;SDS011;17906;47.684;10.806;2023-03-20T03:48:55;1.50;;;1.00;;
16737;SDS011;17906;47.684;10.806;2023-03-20T03:51:24;1.77;;;1.03;;
16737;SDS011;17906;47.684;10.806;2023-03-20T03:53:57;2.13;;;1.37;;
16737;SDS011;17906;47.684;10.806;2023-03-20T03:56:27;1.90;;;0.73;;
16737;SDS011;17906;47.684;10.806;2023-03-20T03:58:58;1.40;;;0.83;;
16737;SDS011;17906;47.684;10.806;2023-03-20T04:01:30;1.90;;;1.40;;
16737;SDS011;17906;47.684;10.806;2023-03-20T04:04:00;2.23;;;1.10;;
16737;SDS011;17906;47.684;10.806;2023-03-20T04:06:30;1.23;;;1.07;;
16737;SDS011;17906;47.684;10.806;2023-03-20T04:08:58;1.40;;;1.03;;
16737;SDS011;17906;47.684;10.806;2023-03-20T04:11:25;1.67;;;1.17;;
16737;SDS011;17906;47.684;10.806;2023-03-20T04:13:53;1.73;;;1.00;;
16737;SDS011;17906;47.684;10.806;2023-03-20T04:16:21;2.33;;;1.30;;
16737;SDS011;17906;47.684;10.806;2023-03-20T04:18:50;2.60;;;1.27;;
16737;SDS011;17906;47.684;10.806;2023-03-20T04:21:16;2.00;;;1.50;;
16737;SDS011;17906;47.684;10.806;2023-03-20T04:23:43;2.17;;;1.10;;
16737;SDS011;17906;47.684;10.806;2023-03-20T04:26:12;1.53;;;1.17;;
16737;SDS011;17906;47.684;10.806;2023-03-20T04:28:38;1.70;;;1.27;;
16737;SDS011;17906;47.684;10.806;2023-03-20T04:31:05;2.33;;;1.47;;
16737;SDS011;17906;47.684;10.806;2023-03-20T04:33:32;3.20;;;1.40;;
16737;SDS011;17906;47.684;10.806;2023-03-20T04:35:58;6.27;;;1.63;;
16737;SDS011;17906;47.684;10.806;2023-03-20T04:38:25;4.67;;;1.80;;
16737;SDS011;17906;47.684;10.806;2023-03-20T04:40:52;3.00;;;1.60;;
16737;SDS011;17906;47.684;10.806;2023-03-20T04:43:20;3.03;;;1.80;;
16737;SDS011;17906;47.684;10.806;2023-03-20T04:45:46;2.93;;;1.70;;
16737;SDS011;17906;47.684;10.806;2023-03-20T04:48:13;2.60;;;2.00;;
16737;SDS011;17906;47.684;10.806;2023-03-20T04:50:40;3.63;;;1.90;;
16737;SDS011;17906;47.684;10.806;2023-03-20T04:53:06;3.57;;;2.20;;
16737;SDS011;17906;47.684;10.806;2023-03-20T04:55:33;3.87;;;2.67;;
16737;SDS011;17906;47.684;10.806;2023-03-20T04:58:00;4.20;;;2.70;;
16737;SDS011;17906;47.684;10.806;2023-03-20T05:00:28;3.07;;;2.07;;
16737;SDS011;17906;47.684;10.806;2023-03-20T05:02:54;3.43;;;2.20;;
16737;SDS011;17906;47.684;10.806;2023-03-20T05:05:21;3.67;;;1.83;;
16737;SDS011;17906;47.684;10.806;2023-03-20T05:07:49;2.33;;;1.70;;
16737;SDS011;17906;47.684;10.806;2023-03-20T05:10:16;2.90;;;1.63;;
16737;SDS011;17906;47.684;10.806;2023-03-20T05:12:43;2.90;;;1.63;;
16737;SDS011;17906;47.684;10.806;2023-03-20T05:15:10;2.30;;;1.67;;
16737;SDS011;17906;47.684;10.806;2023-03-20T05:17:38;2.77;;;1.70;;
16737;SDS011;17906;47.684;10.806;2023-03-20T05:20:05;2.93;;;1.67;;
16737;SDS011;17906;47.684;10.806;2023-03-20T05:22:33;2.13;;;1.50;;
16737;SDS011;17906;47.684;10.806;2023-03-20T05:25:00;2.07;;;1.37;;
16737;SDS011;17906;47.684;10.806;2023-03-20T05:27:27;2.83;;;1.80;;
16737;SDS011;17906;47.684;10.806;2023-03-20T05:29:54;3.13;;;1.97;;
16737;SDS011;17906;47.684;10.806;2023-03-20T05:32:20;3.87;;;2.90;;
16737;SDS011;17906;47.684;10.806;2023-03-20T05:34:48;4.70;;;2.90;;
16737;SDS011;17906;47.684;10.806;2023-03-20T05:37:15;7.40;;;3.17;;
16737;SDS011;17906;47.684;10.806;2023-03-20T05:39:41;7.63;;;3.67;;
16737;SDS011;17906;47.684;10.806;2023-03-20T05:42:08;6.20;;;3.47;;
16737;SDS011;17906;47.684;10.806;2023-03-20T05:44:35;5.90;;;2.83;;
16737;SDS011;17906;47.684;10.806;2023-03-20T05:47:01;6.07;;;3.30;;
16737;SDS011;17906;47.684;10.806;2023-03-20T05:49:27;4.77;;;2.63;;
16737;SDS011;17906;47.684;10.806;2023-03-20T05:51:56;6.07;;;2.97;;
16737;SDS011;17906;47.684;10.806;2023-03-20T05:54:22;3.90;;;2.47;;
16737;SDS011;17906;47.684;10.806;2023-03-20T05:56:49;2.97;;;1.97;;
16737;SDS011;17906;47.684;10.806;2023-03-20T05:59:16;3.30;;;2.10;;
16737;SDS011;17906;47.684;10.806;2023-03-20T06:01:43;4.53;;;2.10;;
16737;SDS011;17906;47.684;10.806;2023-03-20T06:04:09;3.30;;;2.27;;
16737;SDS011;17906;47.684;10.806;2023-03-20T06:06:36;3.00;;;2.20;;
16737;SDS011;17906;47.684;10.806;2023-03-20T06:09:04;5.57;;;3.10;;
16737;SDS011;17906;47.684;10.806;2023-03-20T06:11:31;4.60;;;2.40;;
16737;SDS011;17906;47.684;10.806;2023-03-20T06:13:58;3.80;;;2.33;;
16737;SDS011;17906;47.684;10.806;2023-03-20T06:16:24;2.27;;;1.70;;
16737;SDS011;17906;47.684;10.806;2023-03-20T06:18:52;3.73;;;1.70;;
16737;SDS011;17906;47.684;10.806;2023-03-20T06:21:18;4.03;;;1.80;;
16737;SDS011;17906;47.684;10.806;2023-03-20T06:23:45;2.23;;;1.80;;
16737;SDS011;17906;47.684;10.806;2023-03-20T06:26:13;1.70;;;1.47;;
16737;SDS011;17906;47.684;10.806;2023-03-20T06:28:39;2.73;;;2.00;;
16737;SDS011;17906;47.684;10.806;2023-03-20T06:31:06;4.20;;;2.70;;
16737;SDS011;17906;47.684;10.806;2023-03-20T06:33:33;3.60;;;2.30;;
16737;SDS011;17906;47.684;10.806;2023-03-20T06:36:01;7.33;;;4.00;;
16737;SDS011;17906;47.684;10.806;2023-03-20T06:38:27;9.10;;;4.30;;
16737;SDS011;17906;47.684;10.806;2023-03-20T06:40:54;8.43;;;3.67;;
16737;SDS011;17906;47.684;10.806;2023-03-20T06:43:22;3.53;;;2.07;;
16737;SDS011;17906;47.684;10.806;2023-03-20T06:45:48;4.17;;;2.33;;
16737;SDS011;17906;47.684;10.806;2023-03-20T06:48:15;4.10;;;2.30;;
16737;SDS011;17906;47.684;10.806;2023-03-20T06:50:46;4.07;;;2.40;;
16737;SDS011;17906;47.684;10.806;2023-03-20T06:53:13;2.63;;;1.80;;
16737;SDS011;17906;47.684;10.806;2023-03-20T06:55:39;5.00;;;2.20;;
16737;SDS011;17906;47.684;10.806;2023-03-20T06:58:06;2.23;;;1.40;;
16737;SDS011;17906;47.684;10.806;2023-03-20T07:00:34;2.30;;;1.57;;
16737;SDS011;17906;47.684;10.806;2023-03-20T07:03:01;3.00;;;1.50;;
16737;SDS011;17906;47.684;10.806;2023-03-20T07:05:28;2.47;;;1.60;;
16737;SDS011;17906;47.684;10.806;2023-03-20T07:07:55;1.77;;;1.23;;
16737;SDS011;17906;47.684;10.806;2023-03-20T07:10:21;3.10;;;1.80;;
16737;SDS011;17906;47.684;10.806;2023-03-20T07:12:48;2.97;;;1.87;;
16737;SDS011;17906;47.684;10.806;2023-03-20T07:15:15;2.67;;;1.73;;
16737;SDS011;17906;47.684;10.806;2023-03-20T07:17:44;3.70;;;1.60;;
16737;SDS011;17906;47.684;10.806;2023-03-20T07:20:11;3.83;;;1.90;;
16737;SDS011;17906;47.684;10.806;2023-03-20T07:22:38;2.10;;;1.80;;
16737;SDS011;17906;47.684;10.806;2023-03-20T07:25:06;2.57;;;1.90;;
16737;SDS011;17906;47.684;10.806;2023-03-20T07:27:34;2.77;;;1.40;;
16737;SDS011;17906;47.684;10.806;2023-03-20T07:30:01;3.83;;;1.70;;
16737;SDS011;17906;47.684;10.806;2023-03-20T07:32:28;2.83;;;1.43;;
16737;SDS011;17906;47.684;10.806;2023-03-20T07:34:56;2.20;;;1.10;;
16737;SDS011;17906;47.684;10.806;2023-03-20T07:37:23;1.57;;;1.00;;
16737;SDS011;17906;47.684;10.806;2023-03-20T07:39:49;2.17;;;1.20;;
16737;SDS011;17906;47.684;10.806;2023-03-20T07:42:16;1.77;;;1.13;;
16737;SDS011;17906;47.684;10.806;2023-03-20T07:44:42;1.83;;;1.00;;
16737;SDS011;17906;47.684;10.806;2023-03-20T07:47:09;3.63;;;1.23;;
16737;SDS011;17906;47.684;10.806;2023-03-20T07:49:36;1.47;;;0.90;;
16737;SDS011;17906;47.684;10.806;2023-03-20T07:52:03;2.33;;;1.20;;
16737;SDS011;17906;47.684;10.806;2023-03-20T07:54:30;1.33;;;1.00;;
16737;SDS011;17906;47.684;10.806;2023-03-20T07:56:57;1.50;;;1.03;;
16737;SDS011;17906;47.684;10.806;2023-03-20T07:59:23;1.57;;;1.20;;
16737;SDS011;17906;47.684;10.806;2023-03-20T08:01:50;9.43;;;5.30;;
16737;SDS011;17906;47.684;10.806;2023-03-20T08:04:17;6.43;;;4.07;;
16737;SDS011;17906;47.684;10.806;2023-03-20T08:06:46;1.70;;;1.10;;
16737;SDS011;17906;47.684;10.806;2023-03-20T08:09:14;2.07;;;1.50;;
16737;SDS011;17906;47.684;10.806;2023-03-20T08:11:41;1.50;;;1.00;;
16737;SDS011;17906;47.684;10.806;2023-03-20T08:14:07;1.50;;;1.10;;
16737;SDS011;17906;47.684;10.806;2023-03-20T08:16:34;1.73;;;1.00;;
16737;SDS011;17906;47.684;10.806;2023-03-20T08:19:01;1.60;;;1.17;;
16737;SDS011;17906;47.684;10.806;2023-03-20T08:21:29;2.00;;;1.27;;
16737;SDS011;17906;47.684;10.806;2023-03-20T08:23:56;1.57;;;1.10;;
16737;SDS011;17906;47.684;10.806;2023-03-20T08:26:25;1.50;;;0.90;;
16737;SDS011;17906;47.684;10.806;2023-03-20T08:28:51;2.00;;;1.20;;
16737;SDS011;17906;47.684;10.806;2023-03-20T08:31:18;3.67;;;1.40;;
16737;SDS011;17906;47.684;10.806;2023-03-20T08:33:44;3.80;;;1.70;;
16737;SDS011;17906;47.684;10.806;2023-03-20T08:36:11;1.47;;;0.90;;
16737;SDS011;17906;47.684;10.806;2023-03-20T08:38:39;1.33;;;0.77;;
16737;SDS011;17906;47.684;10.806;2023-03-20T08:41:06;2.60;;;0.93;;
16737;SDS011;17906;47.684;10.806;2023-03-20T08:43:34;1.50;;;1.00;;
16737;SDS011;17906;47.684;10.806;2023-03-20T08:46:01;1.50;;;1.10;;
16737;SDS011;17906;47.684;10.806;2023-03-20T08:48:28;1.10;;;0.90;;
16737;SDS011;17906;47.684;10.806;2023-03-20T08:50:54;1.03;;;0.63;;
16737;SDS011;17906;47.684;10.806;2023-03-20T08:53:21;1.13;;;0.83;;
16737;SDS011;17906;47.684;10.806;2023-03-20T08:55:48;1.60;;;0.80;;
16737;SDS011;17906;47.684;10.806;2023-03-20T08:58:14;1.00;;;0.80;;
16737;SDS011;17906;47.684;10.806;2023-03-20T09:00:43;0.63;;;0.57;;
16737;SDS011;17906;47.684;10.806;2023-03-20T09:03:10;0.80;;;0.60;;
16737;SDS011;17906;47.684;10.806;2023-03-20T09:05:38;1.07;;;0.80;;
16737;SDS011;17906;47.684;10.806;2023-03-20T09:08:05;0.97;;;0.70;;
16737;SDS011;17906;47.684;10.806;2023-03-20T09:10:32;1.43;;;0.90;;
16737;SDS011;17906;47.684;10.806;2023-03-20T09:12:59;1.10;;;0.80;;
16737;SDS011;17906;47.684;10.806;2023-03-20T09:15:26;1.13;;;0.67;;
16737;SDS011;17906;47.684;10.806;2023-03-20T09:17:54;0.80;;;0.63;;
16737;SDS011;17906;47.684;10.806;2023-03-20T09:20:21;0.97;;;0.80;;
16737;SDS011;17906;47.684;10.806;2023-03-20T09:22:47;2.00;;;0.67;;
16737;SDS011;17906;47.684;10.806;2023-03-20T09:25:14;1.10;;;0.93;;
16737;SDS011;17906;47.684;10.806;2023-03-20T09:27:41;1.75;;;0.75;;
16737;SDS011;17906;47.684;10.806;2023-03-20T09:30:08;1.33;;;0.85;;
16737;SDS011;17906;47.684;10.806;2023-03-20T09:32:36;2.17;;;1.10;;
16737;SDS011;17906;47.684;10.806;2023-03-20T09:35:04;1.27;;;1.00;;
16737;SDS011;17906;47.684;10.806;2023-03-20T09:37:31;1.58;;;0.77;;
16737;SDS011;17906;47.684;10.806;2023-03-20T09:39:58;1.10;;;0.90;;
16737;SDS011;17906;47.684;10.806;2023-03-20T09:42:28;2.05;;;1.00;;
16737;SDS011;17906;47.684;10.806;2023-03-20T09:45:03;1.37;;;0.90;;
16737;SDS011;17906;47.684;10.806;2023-03-20T09:47:37;1.90;;;0.75;;
16737;SDS011;17906;47.684;10.806;2023-03-20T09:50:13;1.77;;;0.80;;
16737;SDS011;17906;47.684;10.806;2023-03-20T09:52:52;1.90;;;1.00;;
16737;SDS011;17906;47.684;10.806;2023-03-20T09:55:24;1.70;;;1.10;;
16737;SDS011;17906;47.684;10.806;2023-03-20T09:57:57;0.50;;;0.40;;
16737;SDS011;17906;47.684;10.806;2023-03-20T10:00:27;1.37;;;0.80;;
16737;SDS011;17906;47.684;10.806;2023-03-20T10:02:57;4.57;;;1.03;;
16737;SDS011;17906;47.684;10.806;2023-03-20T10:05:27;1.63;;;1.00;;
16737;SDS011;17906;47.684;10.806;2023-03-20T10:07:56;3.30;;;1.70;;
16737;SDS011;17906;47.684;10.806;2023-03-20T10:10:26;2.20;;;1.30;;
16737;SDS011;17906;47.684;10.806;2023-03-20T10:13:06;3.00;;;1.10;;
16737;SDS011;17906;47.684;10.806;2023-03-20T10:15:45;3.40;;;1.00;;
16737;SDS011;17906;47.684;10.806;2023-03-20T10:18:16;2.40;;;1.50;;
16737;SDS011;17906;47.684;10.806;2023-03-20T10:20:50;2.33;;;1.20;;
16737;SDS011;17906;47.684;10.806;2023-03-20T10:23:25;1.43;;;1.00;;
16737;SDS011;17906;47.684;10.806;2023-03-20T10:25:59;1.33;;;0.87;;
16737;SDS011;17906;47.684;10.806;2023-03-20T10:28:31;1.97;;;0.70;;
16737;SDS011;17906;47.684;10.806;2023-03-20T10:31:04;4.93;;;0.90;;
16737;SDS011;17906;47.684;10.806;2023-03-20T10:33:46;2.43;;;0.70;;
16737;SDS011;17906;47.684;10.806;2023-03-20T10:36:26;1.10;;;0.67;;
16737;SDS011;17906;47.684;10.806;2023-03-20T10:39:08;0.93;;;0.70;;
16737;SDS011;17906;47.684;10.806;2023-03-20T10:41:46;1.10;;;0.60;;
16737;SDS011;17906;47.684;10.806;2023-03-20T10:44:19;4.27;;;0.93;;
16737;SDS011;17906;47.684;10.806;2023-03-20T10:46:54;1.03;;;0.53;;
16737;SDS011;17906;47.684;10.806;2023-03-20T10:49:26;0.80;;;0.53;;
16737;SDS011;17906;47.684;10.806;2023-03-20T10:52:00;0.53;;;0.43;;
16737;SDS011;17906;47.684;10.806;2023-03-20T10:54:29;1.90;;;0.80;;
16737;SDS011;17906;47.684;10.806;2023-03-20T10:56:59;3.80;;;0.50;;
16737;SDS011;17906;47.684;10.806;2023-03-20T10:59:28;0.97;;;0.50;;
16737;SDS011;17906;47.684;10.806;2023-03-20T11:01:59;0.60;;;0.50;;
16737;SDS011;17906;47.684;10.806;2023-03-20T11:04:26;0.70;;;0.40;;
16737;SDS011;17906;47.684;10.806;2023-03-20T11:06:54;2.27;;;0.63;;
16737;SDS011;17906;47.684;10.806;2023-03-20T11:09:30;2.63;;;0.87;;
16737;SDS011;17906;47.684;10.806;2023-03-20T11:11:57;2.57;;;0.80;;
16737;SDS011;17906;47.684;10.806;2023-03-20T11:14:25;7.67;;;1.10;;
16737;SDS011;17906;47.684;10.806;2023-03-20T11:16:59;1.07;;;0.57;;
16737;SDS011;17906;47.684;10.806;2023-03-20T11:19:27;1.07;;;0.70;;
16737;SDS011;17906;47.684;10.806;2023-03-20T11:21:58;1.10;;;0.80;;
16737;SDS011;17906;47.684;10.806;2023-03-20T11:24:32;0.70;;;0.70;;
16737;SDS011;17906;47.684;10.806;2023-03-20T11:27:05;1.43;;;0.80;;
16737;SDS011;17906;47.684;10.806;2023-03-20T11:29:33;1.10;;;0.70;;
16737;SDS011;17906;47.684;10.806;2023-03-20T11:32:04;2.40;;;0.80;;
16737;SDS011;17906;47.684;10.806;2023-03-20T11:34:38;1.23;;;0.70;;
16737;SDS011;17906;47.684;10.806;2023-03-20T11:37:18;1.00;;;0.80;;
16737;SDS011;17906;47.684;10.806;2023-03-20T11:39:58;1.33;;;1.10;;
16737;SDS011;17906;47.684;10.806;2023-03-20T11:42:27;1.10;;;0.80;;
16737;SDS011;17906;47.684;10.806;2023-03-20T11:44:56;1.33;;;0.97;;
16737;SDS011;17906;47.684;10.806;2023-03-20T11:47:25;1.00;;;0.90;;
16737;SDS011;17906;47.684;10.806;2023-03-20T11:49:55;1.00;;;0.80;;
16737;SDS011;17906;47.684;10.806;2023-03-20T11:52:23;1.67;;;1.10;;
16737;SDS011;17906;47.684;10.806;2023-03-20T11:54:53;1.60;;;1.00;;
16737;SDS011;17906;47.684;10.806;2023-03-20T11:57:27;1.40;;;1.00;;
16737;SDS011;17906;47.684;10.806;2023-03-20T11:59:59;1.30;;;0.90;;
16737;SDS011;17906;47.684;10.806;2023-03-20T12:02:28;1.43;;;0.93;;
16737;SDS011;17906;47.684;10.806;2023-03-20T12:04:58;1.53;;;1.00;;
16737;SDS011;17906;47.684;10.806;2023-03-20T12:07:26;2.77;;;1.40;;
16737;SDS011;17906;47.684;10.806;2023-03-20T12:09:57;1.60;;;1.07;;
16737;SDS011;17906;47.684;10.806;2023-03-20T12:12:32;2.13;;;1.17;;
16737;SDS011;17906;47.684;10.806;2023-03-20T12:15:07;1.90;;;1.13;;
16737;SDS011;17906;47.684;10.806;2023-03-20T12:17:45;2.47;;;1.20;;
16737;SDS011;17906;47.684;10.806;2023-03-20T12:20:22;4.17;;;1.77;;
16737;SDS011;17906;47.684;10.806;2023-03-20T12:22:55;2.17;;;1.40;;
16737;SDS011;17906;47.684;10.806;2023-03-20T12:25:28;1.60;;;1.30;;
16737;SDS011;17906;47.684;10.806;2023-03-20T12:28:04;2.07;;;1.47;;
16737;SDS011;17906;47.684;10.806;2023-03-20T12:30:42;2.43;;;1.60;;
16737;SDS011;17906;47.684;10.806;2023-03-20T12:33:20;1.60;;;1.20;;
16737;SDS011;17906;47.684;10.806;2023-03-20T12:35:57;3.27;;;2.07;;
16737;SDS011;17906;47.684;10.806;2023-03-20T12:38:27;2.17;;;1.57;;
16737;SDS011;17906;47.684;10.806;2023-03-20T12:40:57;2.70;;;1.63;;
16737;SDS011;17906;47.684;10.806;2023-03-20T12:43:33;1.40;;;1.30;;
16737;SDS011;17906;47.684;10.806;2023-03-20T12:46:11;2.50;;;1.50;;
16737;SDS011;17906;47.684;10.806;2023-03-20T12:48:50;2.27;;;1.40;;
16737;SDS011;17906;47.684;10.806;2023-03-20T12:51:27;1.67;;;1.40;;
16737;SDS011;17906;47.684;10.806;2023-03-20T12:54:10;2.13;;;1.60;;
16737;SDS011;17906;47.684;10.806;2023-03-20T12:56:55;3.17;;;1.40;;
16737;SDS011;17906;47.684;10.806;2023-03-20T12:59:33;2.17;;;1.60;;
16737;SDS011;17906;47.684;10.806;2023-03-20T13:02:14;2.23;;;1.57;;
16737;SDS011;17906;47.684;10.806;2023-03-20T13:04:52;2.07;;;1.57;;
16737;SDS011;17906;47.684;10.806;2023-03-20T13:07:32;2.60;;;1.73;;
16737;SDS011;17906;47.684;10.806;2023-03-20T13:10:11;3.20;;;2.23;;
16737;SDS011;17906;47.684;10.806;2023-03-20T13:12:47;2.30;;;1.80;;
16737;SDS011;17906;47.684;10.806;2023-03-20T13:15:29;2.70;;;1.80;;
16737;SDS011;17906;47.684;10.806;2023-03-20T13:18:02;2.47;;;1.60;;
16737;SDS011;17906;47.684;10.806;2023-03-20T13:20:37;2.00;;;1.37;;
16737;SDS011;17906;47.684;10.806;2023-03-20T13:23:22;4.43;;;1.80;;
16737;SDS011;17906;47.684;10.806;2023-03-20T13:25:58;2.03;;;1.40;;
16737;SDS011;17906;47.684;10.806;2023-03-20T13:28:34;1.80;;;1.27;;
16737;SDS011;17906;47.684;10.806;2023-03-20T13:31:12;3.20;;;1.23;;
16737;SDS011;17906;47.684;10.806;2023-03-20T13:33:50;1.67;;;1.30;;
16737;SDS011;17906;47.684;10.806;2023-03-20T13:36:24;2.07;;;1.30;;
16737;SDS011;17906;47.684;10.806;2023-03-20T13:39:04;5.43;;;1.43;;
16737;SDS011;17906;47.684;10.806;2023-03-20T13:41:39;1.40;;;1.20;;
16737;SDS011;17906;47.684;10.806;2023-03-20T13:44:07;2.07;;;1.53;;
16737;SDS011;17906;47.684;10.806;2023-03-20T13:46:41;2.17;;;1.60;;
16737;SDS011;17906;47.684;10.806;2023-03-20T13:49:13;1.77;;;1.20;;
16737;SDS011;17906;47.684;10.806;2023-03-20T13:51:47;2.97;;;1.70;;
16737;SDS011;17906;47.684;10.806;2023-03-20T13:54:37;2.17;;;1.47;;
16737;SDS011;17906;47.684;10.806;2023-03-20T13:57:21;1.73;;;1.40;;
16737;SDS011;17906;47.684;10.806;2023-03-20T13:59:57;3.17;;;1.53;;
16737;SDS011;17906;47.684;10.806;2023-03-20T14:02:41;1.40;;;1.27;;
16737;SDS011;17906;47.684;10.806;2023-03-20T14:05:18;2.70;;;1.50;;
16737;SDS011;17906;47.684;10.806;2023-03-20T14:07:47;1.67;;;1.33;;
16737;SDS011;17906;47.684;10.806;2023-03-20T14:13:03;4.17;;;1.40;;
16737;SDS011;17906;47.684;10.806;2023-03-20T14:15:36;2.33;;;1.53;;
16737;SDS011;17906;47.684;10.806;2023-03-20T14:18:12;1.30;;;1.20;;
16737;SDS011;17906;47.684;10.806;2023-03-20T14:20:41;1.67;;;1.30;;
16737;SDS011;17906;47.684;10.806;2023-03-20T14:23:14;1.20;;;1.10;;
16737;SDS011;17906;47.684;10.806;2023-03-20T14:25:44;4.10;;;1.33;;
16737;SDS011;17906;47.684;10.806;2023-03-20T14:28:23;1.70;;;1.30;;
16737;SDS011;17906;47.684;10.806;2023-03-20T14:31:10;1.97;;;1.53;;
16737;SDS011;17906;47.684;10.806;2023-03-20T14:33:43;1.63;;;1.33;;
16737;SDS011;17906;47.684;10.806;2023-03-20T14:36:11;6.30;;;3.60;;
16737;SDS011;17906;47.684;10.806;2023-03-20T14:38:45;1.70;;;1.40;;
16737;SDS011;17906;47.684;10.806;2023-03-20T14:41:18;3.20;;;1.70;;
16737;SDS011;17906;47.684;10.806;2023-03-20T14:43:53;3.70;;;1.53;;
16737;SDS011;17906;47.684;10.806;2023-03-20T14:46:26;5.37;;;2.13;;
16737;SDS011;17906;47.684;10.806;2023-03-20T14:49:14;2.07;;;1.40;;
16737;SDS011;17906;47.684;10.806;2023-03-20T14:51:49;1.73;;;1.50;;
16737;SDS011;17906;47.684;10.806;2023-03-20T14:54:25;2.37;;;1.40;;
16737;SDS011;17906;47.684;10.806;2023-03-20T14:56:53;1.70;;;1.20;;
16737;SDS011;17906;47.684;10.806;2023-03-20T14:59:21;2.20;;;1.47;;
16737;SDS011;17906;47.684;10.806;2023-03-20T15:01:56;2.07;;;1.40;;